Saint Marys, Pennsylvania
Current Conditions -  °F | °C
As of 9:53 PM on Saturday 24 Jan 2015 (Local Time) from KDUJ Reporting Station
Haze Haze  
Wind Chill: 14°   Ceiling: 300
Heat Index: 26°   Visibility: 1.7mi
Dew Point: 25°   Wind: 15mph
Humidity: 96%   Direction: 250°WSW
Pressure: 29.56"   Gusts: NA
Location:  41.43°N, 78.56°W
Report Text: KDUJ 250253Z AUTO 25013KT 1 3/4SM BR OVC003 M03/M04 A2956 RMK AO2 SLP030 I1001 I3007 T10331039 53005
Loading
Personal Weather Stations






























Interactive Weather Map New forecast layout! Learn more

10-Day Weather Forecast

Advertisements
Track Severe Weather on mobile